createdAt,value
2023-04-24T00:03:36.380Z,3.90
2023-04-24T00:08:40.374Z,4.15
2023-04-24T00:13:44.378Z,3.90
2023-04-24T00:18:49.729Z,4.32
2023-04-24T00:23:54.553Z,3.92
2023-04-24T00:28:58.550Z,4.40
2023-04-24T00:34:05.084Z,3.35
2023-04-24T00:39:12.189Z,3.63
2023-04-24T00:44:17.050Z,3.25
2023-04-24T00:49:21.146Z,3.20
2023-04-24T00:54:25.333Z,3.13
2023-04-24T00:59:29.300Z,4.60
2023-04-24T01:04:33.436Z,3.63
2023-04-24T01:09:40.049Z,3.35
2023-04-24T01:14:44.610Z,3.22
2023-04-24T01:19:48.784Z,3.53
2023-04-24T01:24:55.260Z,3.97
2023-04-24T01:29:59.585Z,3.45
2023-04-24T01:35:04.423Z,3.13
2023-04-24T01:40:09.309Z,3.80
2023-04-24T01:45:14.840Z,4.80
2023-04-24T01:50:20.285Z,4.97
2023-04-24T01:55:24.266Z,3.50
2023-04-24T02:00:28.481Z,3.63
2023-04-24T02:05:32.344Z,3.00
2023-04-24T02:10:36.445Z,2.90
2023-04-24T02:15:42.488Z,3.15
2023-04-24T02:20:47.054Z,2.85
2023-04-24T02:25:51.800Z,2.92
2023-04-24T02:30:56.136Z,2.95
2023-04-24T02:36:00.289Z,3.15
2023-04-24T02:41:07.804Z,2.92
2023-04-24T02:46:11.852Z,3.00
2023-04-24T02:51:15.923Z,3.22
2023-04-24T02:56:20.095Z,2.97
2023-04-24T03:01:24.036Z,3.55
2023-04-24T03:06:28.933Z,3.00
2023-04-24T03:11:32.808Z,3.08
2023-04-24T03:16:38.137Z,2.88
2023-04-24T03:21:43.546Z,3.00
2023-04-24T03:26:48.144Z,2.67
2023-04-24T03:32:04.164Z,3.15
2023-04-24T03:37:08.731Z,2.88
2023-04-24T03:42:17.677Z,3.03
2023-04-24T03:47:32.819Z,2.97
2023-04-24T03:52:39.111Z,2.50
2023-04-24T03:57:43.521Z,2.67
2023-04-24T04:02:56.927Z,2.80
2023-04-24T04:08:01.792Z,3.28
2023-04-24T04:13:06.131Z,5.13
2023-04-24T04:18:10.828Z,2.50
2023-04-24T04:23:14.918Z,3.50
2023-04-24T04:28:41.073Z,2.88
2023-04-24T04:33:45.176Z,3.00
2023-04-24T04:38:50.209Z,2.67
2023-04-24T04:44:19.121Z,2.87
2023-04-24T04:49:25.442Z,2.30
2023-04-24T04:54:29.685Z,2.20
2023-04-24T04:59:34.558Z,2.10
2023-04-24T05:04:43.975Z,2.10
2023-04-24T05:09:49.230Z,2.50
2023-04-24T05:14:53.362Z,4.68
2023-04-24T05:19:57.623Z,4.30
2023-04-24T05:25:02.182Z,4.15
2023-04-24T05:30:29.488Z,3.17
2023-04-24T05:35:33.561Z,3.22
2023-04-24T05:40:38.576Z,3.28
2023-04-24T05:45:42.554Z,2.80
2023-04-24T05:50:46.695Z,3.10
2023-04-24T05:55:51.280Z,3.08
2023-04-24T06:00:56.919Z,2.95
2023-04-24T06:06:01.560Z,3.80
2023-04-24T06:11:05.864Z,4.32
2023-04-24T06:16:11.289Z,3.47
2023-04-24T06:21:18.977Z,3.78
2023-04-24T06:26:23.826Z,4.43
2023-04-24T06:31:28.099Z,3.70
2023-04-24T06:36:32.789Z,4.45
2023-04-24T06:41:37.532Z,4.22
2023-04-24T06:46:42.043Z,4.40
2023-04-24T06:51:47.120Z,4.72
2023-04-24T06:56:53.373Z,4.40
2023-04-24T07:01:58.773Z,4.18
2023-04-24T07:07:02.752Z,5.05
2023-04-24T07:12:07.616Z,4.15
2023-04-24T07:17:11.539Z,4.07
2023-04-24T07:22:18.469Z,4.80
2023-04-24T07:27:22.354Z,4.70
2023-04-24T07:32:27.116Z,4.22
2023-04-24T07:37:31.401Z,3.72
2023-04-24T07:42:36.410Z,4.25
2023-04-24T07:47:41.647Z,3.88
2023-04-24T07:52:45.677Z,3.85
2023-04-24T07:57:49.748Z,3.20
2023-04-24T08:02:53.798Z,3.30
2023-04-24T08:07:58.424Z,2.95
2023-04-24T08:13:02.285Z,3.28
2023-04-24T08:18:06.680Z,3.70
2023-04-24T08:23:11.105Z,3.08
2023-04-24T08:28:21.847Z,3.20
2023-04-24T08:33:26.441Z,3.05
2023-04-24T08:38:30.929Z,3.30
2023-04-24T08:43:38.311Z,2.90
2023-04-24T08:48:42.189Z,3.17
2023-04-24T08:53:48.434Z,3.40
2023-04-24T08:58:56.440Z,3.25
2023-04-24T09:04:04.585Z,2.85
2023-04-24T09:09:10.363Z,2.17
2023-04-24T09:14:48.573Z,2.20
2023-04-24T09:19:58.581Z,2.20
2023-04-24T09:25:08.625Z,2.47
2023-04-24T09:30:13.291Z,2.08
2023-04-24T09:35:17.989Z,2.40
2023-04-24T09:40:24.043Z,2.25
2023-04-24T09:45:38.781Z,3.15
2023-04-24T09:50:49.300Z,3.20
2023-04-24T09:55:54.855Z,3.00
2023-04-24T10:00:59.247Z,2.53
2023-04-24T10:06:12.042Z,2.25
2023-04-24T10:11:16.746Z,2.10
2023-04-24T10:16:24.697Z,2.03
2023-04-24T10:21:29.338Z,2.50
2023-04-24T10:26:33.589Z,2.30
2023-04-24T10:31:40.204Z,2.40
2023-04-24T10:36:54.336Z,2.15
2023-04-24T10:42:00.135Z,2.40
2023-04-24T10:47:04.398Z,1.98
2023-04-24T10:52:11.125Z,1.65
2023-04-24T10:57:23.992Z,1.55
2023-04-24T11:02:40.088Z,2.22
2023-04-24T11:08:16.375Z,1.55
2023-04-24T11:13:24.413Z,1.65
2023-04-24T11:18:28.600Z,1.98
2023-04-24T11:23:39.123Z,2.20
2023-04-24T11:28:52.867Z,1.90
2023-04-24T11:33:57.135Z,1.90
2023-04-24T11:39:01.242Z,1.65
2023-04-24T11:44:08.573Z,1.80
2023-04-24T11:49:14.488Z,2.55
2023-04-24T11:54:18.481Z,2.47
2023-04-24T11:59:22.503Z,2.15
2023-04-24T12:04:27.065Z,2.30
2023-04-24T12:09:42.830Z,2.10
2023-04-24T12:14:52.478Z,2.40
2023-04-24T12:20:05.065Z,2.28
2023-04-24T12:25:13.468Z,2.25
2023-04-24T12:30:18.554Z,2.28
2023-04-24T12:35:24.950Z,2.03
2023-04-24T12:40:30.914Z,2.80
2023-04-24T12:45:34.750Z,2.20
2023-04-24T12:50:40.261Z,2.30
2023-04-24T12:55:44.443Z,2.05
2023-04-24T13:00:49.468Z,2.50
2023-04-24T13:05:53.385Z,2.40
2023-04-24T13:10:57.570Z,2.28
2023-04-24T13:16:01.567Z,2.00
2023-04-24T13:21:05.733Z,1.98
2023-04-24T13:26:10.267Z,2.40
2023-04-24T13:31:15.576Z,2.60
2023-04-24T13:36:19.957Z,3.35
2023-04-24T13:41:23.862Z,2.15
2023-04-24T13:46:27.975Z,3.50
2023-04-24T13:51:32.352Z,2.33
2023-04-24T13:56:36.764Z,2.40
2023-04-24T14:01:41.019Z,2.20
2023-04-24T14:06:45.972Z,2.30
2023-04-24T14:11:50.223Z,2.78
2023-04-24T14:16:54.132Z,3.60
2023-04-24T14:22:00.237Z,3.40
2023-04-24T14:27:04.651Z,2.53
2023-04-24T14:32:10.670Z,3.33
2023-04-24T14:37:17.928Z,2.28
2023-04-24T14:42:21.875Z,2.33
2023-04-24T14:47:26.220Z,2.85
2023-04-24T14:52:30.227Z,2.35
2023-04-24T14:57:34.508Z,3.25
2023-04-24T15:02:42.031Z,2.75
2023-04-24T15:07:47.035Z,3.15
2023-04-24T15:12:51.423Z,4.22
2023-04-24T15:17:55.429Z,3.00
2023-04-24T15:23:01.675Z,4.32
2023-04-24T15:28:06.920Z,5.00
2023-04-24T15:33:11.350Z,4.43
2023-04-24T15:38:15.543Z,5.35
2023-04-24T15:43:19.648Z,5.85
2023-04-24T15:48:23.605Z,5.93
2023-04-24T15:53:29.199Z,6.50
2023-04-24T15:58:33.171Z,6.68
2023-04-24T16:03:37.615Z,6.65
2023-04-24T16:08:42.394Z,6.43
2023-04-24T16:13:46.351Z,6.43
2023-04-24T16:18:50.916Z,6.90
2023-04-24T16:23:55.362Z,6.45
2023-04-24T16:28:59.469Z,6.40
2023-04-24T16:34:03.444Z,6.60
2023-04-24T16:39:07.860Z,6.60
2023-04-24T16:44:12.154Z,8.18
2023-04-24T16:49:16.094Z,7.35
2023-04-24T16:54:20.130Z,7.88
2023-04-24T16:59:25.251Z,9.27
2023-04-24T17:04:29.871Z,8.80
2023-04-24T17:09:34.095Z,7.53
2023-04-24T17:14:38.385Z,5.30
2023-04-24T17:19:42.428Z,1.98
2023-04-24T17:24:46.494Z,1.02
2023-04-24T17:29:50.915Z,0.70
2023-04-24T17:34:55.062Z,0.40
2023-04-24T17:39:59.436Z,0.30
2023-04-24T17:45:03.447Z,0.30
2023-04-24T17:50:08.087Z,0.20
2023-04-24T17:55:12.247Z,0.10
2023-04-24T18:00:16.610Z,0.05
2023-04-24T18:05:21.698Z,0.10
2023-04-24T18:10:30.354Z,0.30
2023-04-24T18:15:36.091Z,0.10
2023-04-24T18:21:20.321Z,0.17
2023-04-24T18:26:24.055Z,0.30
2023-04-24T18:31:28.881Z,0.15
2023-04-24T18:36:33.778Z,0.20
2023-04-24T18:41:38.350Z,0.20
2023-04-24T18:46:42.372Z,0.20
2023-04-24T18:51:53.938Z,0.25
2023-04-24T18:56:58.773Z,0.57
2023-04-24T19:02:02.849Z,0.38
2023-04-24T19:07:06.980Z,0.30
2023-04-24T19:12:11.092Z,0.20
2023-04-24T19:17:15.094Z,0.30
2023-04-24T19:22:21.000Z,0.40
2023-04-24T19:27:25.407Z,0.30
2023-04-24T19:32:29.457Z,0.30
2023-04-24T19:37:35.208Z,0.32
2023-04-24T19:42:43.778Z,0.43
2023-04-24T19:47:48.694Z,0.70
2023-04-24T19:52:52.669Z,0.47
2023-04-24T19:57:57.113Z,0.57
2023-04-24T20:03:01.413Z,0.50
2023-04-24T20:08:05.639Z,0.80
2023-04-24T20:13:09.723Z,0.90
2023-04-24T20:18:14.072Z,1.25
2023-04-24T20:23:18.478Z,1.65
2023-04-24T20:28:22.418Z,1.50
2023-04-24T20:33:26.797Z,1.30
2023-04-24T20:38:31.765Z,1.30
2023-04-24T20:43:36.184Z,1.33
2023-04-24T20:48:40.172Z,0.90
2023-04-24T20:53:44.027Z,1.30
2023-04-24T20:58:49.730Z,1.48
2023-04-24T21:03:54.220Z,1.00
2023-04-24T21:08:58.654Z,0.90
2023-04-24T21:14:02.572Z,1.10
2023-04-24T21:19:06.603Z,1.08
2023-04-24T21:24:10.592Z,1.25
2023-04-24T21:29:14.556Z,1.20
2023-04-24T21:34:18.742Z,1.02
2023-04-24T21:39:22.704Z,1.23
2023-04-24T21:44:27.082Z,1.00
2023-04-24T21:49:31.139Z,0.90
2023-04-24T21:54:35.110Z,0.98
2023-04-24T21:59:39.466Z,0.77
2023-04-24T22:04:43.796Z,0.90
2023-04-24T22:09:48.553Z,0.85
2023-04-24T22:14:52.650Z,0.57
2023-04-24T22:19:56.505Z,0.80
2023-04-24T22:25:00.549Z,1.08
2023-04-24T22:30:05.642Z,0.80
2023-04-24T22:35:10.592Z,0.90
2023-04-24T22:40:14.508Z,0.70
2023-04-24T22:45:18.824Z,0.70
2023-04-24T22:50:23.080Z,0.40
2023-04-24T22:55:27.132Z,0.55
2023-04-24T23:00:31.192Z,0.70
2023-04-24T23:05:35.124Z,0.80
2023-04-24T23:10:39.382Z,0.55
2023-04-24T23:15:43.167Z,0.70
2023-04-24T23:20:47.749Z,1.15
2023-04-24T23:25:51.845Z,1.35
2023-04-24T23:30:55.727Z,1.00
2023-04-24T23:35:59.687Z,0.85
2023-04-24T23:41:03.718Z,1.33
2023-04-24T23:46:08.067Z,1.17
2023-04-24T23:51:12.331Z,0.80
2023-04-24T23:56:16.392Z,0.95
